Volcano, CA (95689)

7:13 PM PDT on August 29, 2015 (GMT -0700)
Upper Shake Ridge | | Change Station
CLOSE
Current Station
Personal Weather Station
Location: Volcano, CA
Elevation: 3219 ft
Nearby Weather Stations

Elev 3219 ft 38.50 °N, 120.57 °W | Updated 3 minutes ago

Clear
Clear
68.9 °F
Feels Like 68.9 °F
N
0.0
Wind Variable Wind from WSW
Gusts 1.0 mph

Today
High -- | Low -- °F
--% Chance of Precip.
Yesterday
High -- | Low -- °F
Precip. -- in
6:29 AM 7:37 PM
Full, 100% visible
Pressure 30.05 in
Visibility 10.0 miles
Clouds Few 10000 ft
Dew Point 57 °F
Humidity 65%
Rainfall 0.00 in
Snow Depth Not available.
UV 0 out of 12
Pollen 8.20 out of 12
Air Quality Not available.
Flu Activity Not available.
METAR KPVF 300155Z AUTO 22006KT 10SM FEW100 22/11 A3005 RMK AO1
Pressure 30.05 in
Visibility 10.0 miles
Clouds Few 10000 ft
Dew Point 57 °F
Humidity 65%
Rainfall 0.00 in
Snow Depth Not available.
UV 0 out of 12
Pollen 8.20 out of 12
Air Quality Not available.
Flu Activity Not available.
METAR KPVF 300155Z AUTO 22006KT 10SM FEW100 22/11 A3005 RMK AO1

10-Day Weather Forecast

×

Almanac

Astronomy

Aug. 29, 2015 Rise Set
Actual Time
Civil Twilight
Nautical Twilight
Astronomical Twilight
Moon
Length of Visible Light
Length of Day
Tomorrow will be .
, % of the Moon is Illuminated

Today's Extremes

State Highs State Lows

Community

WunderPhotos

Upload Photos

1,850,849 photos uploaded!

WunderBlogs® & News

Nearby

Air Quality

  Air Quality AQ Index Pollutant
Not available.

Snow Depth

Station Depth Elevation

Earthquake Activity

City Distance Mag. Time & Date
Minimum magnitude displayed is 2.5.

Coastal Water Temperatures

Place Temperature

Stations

Nearby Weather Stations

Station Location Temp. Windchill Dew Point Humidity Wind Precip. Elev Updated Type